<?xml version="1.0" encoding="UTF-8" standalone="no" ?>
<gpx xmlns="http://www.topografix.com/GPX/1/1" xmlns:xsi="http://www.w3.org/2001/XMLSchema-instance" xsi:schemaLocation="http://www.topografix.com/GPX/1/1 http://www.topografix.com/GPX/1/1/gpx.xsd" version="1.1" creator="VisuGPX - https://www.visugpx.com">
  <metadata>
    <name>GR20 - 1 - Conca - IPaliri</name>
    <desc><![CDATA[Etape 1 entre Conca - IPaliri]]></desc>
  </metadata>
  <trk>
    <name><![CDATA[GR20 - 1 - Conca - IPaliri_1]]></name>
    <trkseg>
      <trkpt lat="41.74125" lon="9.32967">
        <ele>379</ele>
        <time>2009-06-01T14:46:32Z</time>
      </trkpt>
      <trkpt lat="41.74171" lon="9.32983">
        <ele>379</ele>
        <time>2009-06-01T14:47:32Z</time>
      </trkpt>
      <trkpt lat="41.74236" lon="9.32936">
        <ele>384</ele>
        <time>2009-06-01T14:48:32Z</time>
      </trkpt>
      <trkpt lat="41.74279" lon="9.32957">
        <ele>394</ele>
        <time>2009-06-01T14:49:32Z</time>
      </trkpt>
      <trkpt lat="41.74326" lon="9.32957">
        <ele>404</ele>
        <time>2009-06-01T14:50:32Z</time>
      </trkpt>
      <trkpt lat="41.74373" lon="9.32889">
        <ele>414</ele>
        <time>2009-06-01T14:51:32Z</time>
      </trkpt>
      <trkpt lat="41.7443" lon="9.32858">
        <ele>422</ele>
        <time>2009-06-01T14:52:32Z</time>
      </trkpt>
      <trkpt lat="41.74444" lon="9.32784">
        <ele>432</ele>
        <time>2009-06-01T14:53:32Z</time>
      </trkpt>
      <trkpt lat="41.74477" lon="9.3279">
        <ele>444</ele>
        <time>2009-06-01T14:54:32Z</time>
      </trkpt>
      <trkpt lat="41.74506" lon="9.32774">
        <ele>454</ele>
        <time>2009-06-01T14:55:32Z</time>
      </trkpt>
      <trkpt lat="41.74538" lon="9.32748">
        <ele>466</ele>
        <time>2009-06-01T14:56:32Z</time>
      </trkpt>
      <trkpt lat="41.74559" lon="9.32722">
        <ele>478</ele>
        <time>2009-06-01T14:57:32Z</time>
      </trkpt>
      <trkpt lat="41.74556" lon="9.32717">
        <ele>487</ele>
        <time>2009-06-01T14:58:32Z</time>
      </trkpt>
      <trkpt lat="41.74572" lon="9.32716">
        <ele>498</ele>
        <time>2009-06-01T14:59:32Z</time>
      </trkpt>
      <trkpt lat="41.74594" lon="9.32696">
        <ele>507</ele>
        <time>2009-06-01T15:00:32Z</time>
      </trkpt>
      <trkpt lat="41.74615" lon="9.3266">
        <ele>515</ele>
        <time>2009-06-01T15:01:32Z</time>
      </trkpt>
      <trkpt lat="41.74633" lon="9.32644">
        <ele>523</ele>
        <time>2009-06-01T15:02:32Z</time>
      </trkpt>
      <trkpt lat="41.74651" lon="9.32657">
        <ele>532</ele>
        <time>2009-06-01T15:03:32Z</time>
      </trkpt>
      <trkpt lat="41.74661" lon="9.32617">
        <ele>541</ele>
        <time>2009-06-01T15:04:32Z</time>
      </trkpt>
      <trkpt lat="41.7467" lon="9.32612">
        <ele>550</ele>
        <time>2009-06-01T15:05:32Z</time>
      </trkpt>
      <trkpt lat="41.74682" lon="9.326">
        <ele>559</ele>
        <time>2009-06-01T15:06:32Z</time>
      </trkpt>
      <trkpt lat="41.74713" lon="9.32615">
        <ele>568</ele>
        <time>2009-06-01T15:07:32Z</time>
      </trkpt>
      <trkpt lat="41.74741" lon="9.32614">
        <ele>577</ele>
        <time>2009-06-01T15:08:32Z</time>
      </trkpt>
      <trkpt lat="41.74739" lon="9.32617">
        <ele>586</ele>
        <time>2009-06-01T15:09:32Z</time>
      </trkpt>
      <trkpt lat="41.74744" lon="9.32612">
        <ele>593</ele>
        <time>2009-06-01T15:10:32Z</time>
      </trkpt>
      <trkpt lat="41.74742" lon="9.3261">
        <ele>594</ele>
        <time>2009-06-01T15:11:32Z</time>
      </trkpt>
      <trkpt lat="41.74761" lon="9.32564">
        <ele>594</ele>
        <time>2009-06-01T15:12:32Z</time>
      </trkpt>
      <trkpt lat="41.7479" lon="9.32528">
        <ele>593</ele>
        <time>2009-06-01T15:13:32Z</time>
      </trkpt>
      <trkpt lat="41.74798" lon="9.32472">
        <ele>586</ele>
        <time>2009-06-01T15:14:32Z</time>
      </trkpt>
      <trkpt lat="41.7477" lon="9.32417">
        <ele>578</ele>
        <time>2009-06-01T15:15:32Z</time>
      </trkpt>
      <trkpt lat="41.74765" lon="9.32341">
        <ele>578</ele>
        <time>2009-06-01T15:16:32Z</time>
      </trkpt>
      <trkpt lat="41.74787" lon="9.32296">
        <ele>584</ele>
        <time>2009-06-01T15:17:32Z</time>
      </trkpt>
      <trkpt lat="41.74779" lon="9.32259">
        <ele>589</ele>
        <time>2009-06-01T15:18:32Z</time>
      </trkpt>
      <trkpt lat="41.74758" lon="9.32185">
        <ele>593</ele>
        <time>2009-06-01T15:19:32Z</time>
      </trkpt>
      <trkpt lat="41.74784" lon="9.32112">
        <ele>602</ele>
        <time>2009-06-01T15:20:32Z</time>
      </trkpt>
      <trkpt lat="41.74833" lon="9.32042">
        <ele>606</ele>
        <time>2009-06-01T15:21:32Z</time>
      </trkpt>
      <trkpt lat="41.74853" lon="9.3202">
        <ele>602</ele>
        <time>2009-06-01T15:22:32Z</time>
      </trkpt>
      <trkpt lat="41.74849" lon="9.3199">
        <ele>599</ele>
        <time>2009-06-01T15:23:32Z</time>
      </trkpt>
      <trkpt lat="41.74839" lon="9.31983">
        <ele>597</ele>
        <time>2009-06-01T15:24:32Z</time>
      </trkpt>
      <trkpt lat="41.74841" lon="9.31943">
        <ele>599</ele>
        <time>2009-06-01T15:25:32Z</time>
      </trkpt>
      <trkpt lat="41.7488" lon="9.31913">
        <ele>606</ele>
        <time>2009-06-01T15:26:32Z</time>
      </trkpt>
      <trkpt lat="41.74915" lon="9.31878">
        <ele>616</ele>
        <time>2009-06-01T15:27:32Z</time>
      </trkpt>
      <trkpt lat="41.74976" lon="9.31861">
        <ele>622</ele>
        <time>2009-06-01T15:28:32Z</time>
      </trkpt>
      <trkpt lat="41.74994" lon="9.31792">
        <ele>630</ele>
        <time>2009-06-01T15:29:32Z</time>
      </trkpt>
      <trkpt lat="41.75007" lon="9.31713">
        <ele>630</ele>
        <time>2009-06-01T15:30:32Z</time>
      </trkpt>
      <trkpt lat="41.75032" lon="9.31678">
        <ele>634</ele>
        <time>2009-06-01T15:31:32Z</time>
      </trkpt>
      <trkpt lat="41.75033" lon="9.31677">
        <ele>635</ele>
        <time>2009-06-01T15:32:32Z</time>
      </trkpt>
      <trkpt lat="41.75024" lon="9.3161">
        <ele>637</ele>
        <time>2009-06-01T15:33:32Z</time>
      </trkpt>
      <trkpt lat="41.75011" lon="9.31577">
        <ele>639</ele>
        <time>2009-06-01T15:34:32Z</time>
      </trkpt>
      <trkpt lat="41.75051" lon="9.31524">
        <ele>636</ele>
        <time>2009-06-01T15:35:32Z</time>
      </trkpt>
      <trkpt lat="41.75075" lon="9.31467">
        <ele>639</ele>
        <time>2009-06-01T15:36:32Z</time>
      </trkpt>
      <trkpt lat="41.75094" lon="9.31442">
        <ele>642</ele>
        <time>2009-06-01T15:37:32Z</time>
      </trkpt>
      <trkpt lat="41.75141" lon="9.31427">
        <ele>645</ele>
        <time>2009-06-01T15:38:32Z</time>
      </trkpt>
      <trkpt lat="41.75196" lon="9.31435">
        <ele>652</ele>
        <time>2009-06-01T15:39:32Z</time>
      </trkpt>
      <trkpt lat="41.75239" lon="9.31485">
        <ele>659</ele>
        <time>2009-06-01T15:40:32Z</time>
      </trkpt>
      <trkpt lat="41.75299" lon="9.31517">
        <ele>664</ele>
        <time>2009-06-01T15:41:32Z</time>
      </trkpt>
      <trkpt lat="41.75347" lon="9.31493">
        <ele>666</ele>
        <time>2009-06-01T15:42:32Z</time>
      </trkpt>
      <trkpt lat="41.75397" lon="9.31454">
        <ele>664</ele>
        <time>2009-06-01T15:43:32Z</time>
      </trkpt>
      <trkpt lat="41.75434" lon="9.31417">
        <ele>665</ele>
        <time>2009-06-01T15:44:32Z</time>
      </trkpt>
      <trkpt lat="41.75454" lon="9.31353">
        <ele>665</ele>
        <time>2009-06-01T15:45:32Z</time>
      </trkpt>
      <trkpt lat="41.75501" lon="9.31338">
        <ele>662</ele>
        <time>2009-06-01T15:46:32Z</time>
      </trkpt>
      <trkpt lat="41.75561" lon="9.31321">
        <ele>652</ele>
        <time>2009-06-01T15:47:32Z</time>
      </trkpt>
      <trkpt lat="41.75598" lon="9.31273">
        <ele>648</ele>
        <time>2009-06-01T15:48:32Z</time>
      </trkpt>
      <trkpt lat="41.75654" lon="9.31255">
        <ele>646</ele>
        <time>2009-06-01T15:49:32Z</time>
      </trkpt>
      <trkpt lat="41.7571" lon="9.31232">
        <ele>648</ele>
        <time>2009-06-01T15:50:32Z</time>
      </trkpt>
      <trkpt lat="41.75768" lon="9.31237">
        <ele>650</ele>
        <time>2009-06-01T15:51:32Z</time>
      </trkpt>
      <trkpt lat="41.7582" lon="9.31213">
        <ele>650</ele>
        <time>2009-06-01T15:52:32Z</time>
      </trkpt>
      <trkpt lat="41.75842" lon="9.31139">
        <ele>652</ele>
        <time>2009-06-01T15:53:32Z</time>
      </trkpt>
      <trkpt lat="41.75875" lon="9.31091">
        <ele>651</ele>
        <time>2009-06-01T15:54:32Z</time>
      </trkpt>
      <trkpt lat="41.75934" lon="9.31052">
        <ele>640</ele>
        <time>2009-06-01T15:55:32Z</time>
      </trkpt>
      <trkpt lat="41.75972" lon="9.31012">
        <ele>635</ele>
        <time>2009-06-01T15:56:32Z</time>
      </trkpt>
      <trkpt lat="41.75959" lon="9.30968">
        <ele>639</ele>
        <time>2009-06-01T15:57:32Z</time>
      </trkpt>
      <trkpt lat="41.75983" lon="9.30972">
        <ele>637</ele>
        <time>2009-06-01T15:58:32Z</time>
      </trkpt>
      <trkpt lat="41.76006" lon="9.3095">
        <ele>628</ele>
        <time>2009-06-01T15:59:32Z</time>
      </trkpt>
      <trkpt lat="41.76002" lon="9.30927">
        <ele>618</ele>
        <time>2009-06-01T16:00:32Z</time>
      </trkpt>
      <trkpt lat="41.76007" lon="9.30861">
        <ele>607</ele>
        <time>2009-06-01T16:01:32Z</time>
      </trkpt>
      <trkpt lat="41.76032" lon="9.30796">
        <ele>594</ele>
        <time>2009-06-01T16:02:32Z</time>
      </trkpt>
      <trkpt lat="41.76069" lon="9.30781">
        <ele>585</ele>
        <time>2009-06-01T16:03:32Z</time>
      </trkpt>
      <trkpt lat="41.76107" lon="9.30755">
        <ele>580</ele>
        <time>2009-06-01T16:04:32Z</time>
      </trkpt>
      <trkpt lat="41.76112" lon="9.30777">
        <ele>574</ele>
        <time>2009-06-01T16:05:32Z</time>
      </trkpt>
      <trkpt lat="41.76109" lon="9.30777">
        <ele>565</ele>
        <time>2009-06-01T16:06:32Z</time>
      </trkpt>
      <trkpt lat="41.76113" lon="9.30803">
        <ele>563</ele>
        <time>2009-06-01T16:07:32Z</time>
      </trkpt>
      <trkpt lat="41.76126" lon="9.30843">
        <ele>564</ele>
        <time>2009-06-01T16:08:32Z</time>
      </trkpt>
      <trkpt lat="41.76137" lon="9.30796">
        <ele>566</ele>
        <time>2009-06-01T16:09:32Z</time>
      </trkpt>
      <trkpt lat="41.76159" lon="9.30739">
        <ele>574</ele>
        <time>2009-06-01T16:10:32Z</time>
      </trkpt>
      <trkpt lat="41.76172" lon="9.30702">
        <ele>582</ele>
        <time>2009-06-01T16:11:32Z</time>
      </trkpt>
      <trkpt lat="41.76201" lon="9.30699">
        <ele>588</ele>
        <time>2009-06-01T16:12:32Z</time>
      </trkpt>
      <trkpt lat="41.76217" lon="9.30703">
        <ele>593</ele>
        <time>2009-06-01T16:13:32Z</time>
      </trkpt>
      <trkpt lat="41.76239" lon="9.30707">
        <ele>602</ele>
        <time>2009-06-01T16:14:32Z</time>
      </trkpt>
      <trkpt lat="41.76278" lon="9.30687">
        <ele>606</ele>
        <time>2009-06-01T16:15:32Z</time>
      </trkpt>
      <trkpt lat="41.76328" lon="9.3064">
        <ele>610</ele>
        <time>2009-06-01T16:16:32Z</time>
      </trkpt>
      <trkpt lat="41.7639" lon="9.30591">
        <ele>617</ele>
        <time>2009-06-01T16:17:32Z</time>
      </trkpt>
      <trkpt lat="41.76454" lon="9.30568">
        <ele>622</ele>
        <time>2009-06-01T16:18:32Z</time>
      </trkpt>
      <trkpt lat="41.76506" lon="9.30527">
        <ele>622</ele>
        <time>2009-06-01T16:19:32Z</time>
      </trkpt>
      <trkpt lat="41.76571" lon="9.30485">
        <ele>621</ele>
        <time>2009-06-01T16:20:32Z</time>
      </trkpt>
      <trkpt lat="41.76621" lon="9.30443">
        <ele>621</ele>
        <time>2009-06-01T16:21:32Z</time>
      </trkpt>
      <trkpt lat="41.76627" lon="9.30412">
        <ele>622</ele>
        <time>2009-06-01T16:22:32Z</time>
      </trkpt>
      <trkpt lat="41.76599" lon="9.30395">
        <ele>622</ele>
        <time>2009-06-01T16:23:32Z</time>
      </trkpt>
      <trkpt lat="41.7659" lon="9.30341">
        <ele>621</ele>
        <time>2009-06-01T16:24:32Z</time>
      </trkpt>
      <trkpt lat="41.76592" lon="9.30304">
        <ele>627</ele>
        <time>2009-06-01T16:25:32Z</time>
      </trkpt>
      <trkpt lat="41.76596" lon="9.30262">
        <ele>635</ele>
        <time>2009-06-01T16:26:32Z</time>
      </trkpt>
      <trkpt lat="41.76573" lon="9.30236">
        <ele>643</ele>
        <time>2009-06-01T16:27:32Z</time>
      </trkpt>
      <trkpt lat="41.76548" lon="9.30198">
        <ele>653</ele>
        <time>2009-06-01T16:28:32Z</time>
      </trkpt>
      <trkpt lat="41.7653" lon="9.30154">
        <ele>661</ele>
        <time>2009-06-01T16:29:32Z</time>
      </trkpt>
      <trkpt lat="41.76535" lon="9.30103">
        <ele>669</ele>
        <time>2009-06-01T16:30:32Z</time>
      </trkpt>
      <trkpt lat="41.76512" lon="9.30067">
        <ele>677</ele>
        <time>2009-06-01T16:31:32Z</time>
      </trkpt>
      <trkpt lat="41.76534" lon="9.3003">
        <ele>683</ele>
        <time>2009-06-01T16:32:32Z</time>
      </trkpt>
      <trkpt lat="41.76566" lon="9.30002">
        <ele>693</ele>
        <time>2009-06-01T16:33:32Z</time>
      </trkpt>
      <trkpt lat="41.766" lon="9.29999">
        <ele>702</ele>
        <time>2009-06-01T16:34:32Z</time>
      </trkpt>
      <trkpt lat="41.76639" lon="9.29988">
        <ele>711</ele>
        <time>2009-06-01T16:35:32Z</time>
      </trkpt>
      <trkpt lat="41.76688" lon="9.29973">
        <ele>721</ele>
        <time>2009-06-01T16:36:32Z</time>
      </trkpt>
      <trkpt lat="41.76694" lon="9.29958">
        <ele>731</ele>
        <time>2009-06-01T16:37:32Z</time>
      </trkpt>
      <trkpt lat="41.76696" lon="9.29957">
        <ele>739</ele>
        <time>2009-06-01T16:38:32Z</time>
      </trkpt>
      <trkpt lat="41.76727" lon="9.29948">
        <ele>743</ele>
        <time>2009-06-01T16:39:32Z</time>
      </trkpt>
      <trkpt lat="41.76769" lon="9.29965">
        <ele>744</ele>
        <time>2009-06-01T16:40:32Z</time>
      </trkpt>
      <trkpt lat="41.7683" lon="9.30007">
        <ele>745</ele>
        <time>2009-06-01T16:41:32Z</time>
      </trkpt>
      <trkpt lat="41.76875" lon="9.29992">
        <ele>748</ele>
        <time>2009-06-01T16:42:32Z</time>
      </trkpt>
      <trkpt lat="41.76911" lon="9.29931">
        <ele>747</ele>
        <time>2009-06-01T16:43:32Z</time>
      </trkpt>
      <trkpt lat="41.76951" lon="9.29884">
        <ele>753</ele>
        <time>2009-06-01T16:44:32Z</time>
      </trkpt>
      <trkpt lat="41.76955" lon="9.29816">
        <ele>761</ele>
        <time>2009-06-01T16:45:32Z</time>
      </trkpt>
      <trkpt lat="41.76956" lon="9.2976">
        <ele>765</ele>
        <time>2009-06-01T16:46:32Z</time>
      </trkpt>
      <trkpt lat="41.76985" lon="9.2976">
        <ele>772</ele>
        <time>2009-06-01T16:47:32Z</time>
      </trkpt>
      <trkpt lat="41.77018" lon="9.29767">
        <ele>780</ele>
        <time>2009-06-01T16:48:32Z</time>
      </trkpt>
      <trkpt lat="41.77067" lon="9.29767">
        <ele>790</ele>
        <time>2009-06-01T16:49:32Z</time>
      </trkpt>
      <trkpt lat="41.77081" lon="9.29768">
        <ele>798</ele>
        <time>2009-06-01T16:50:32Z</time>
      </trkpt>
      <trkpt lat="41.77108" lon="9.29762">
        <ele>810</ele>
        <time>2009-06-01T16:51:32Z</time>
      </trkpt>
      <trkpt lat="41.77151" lon="9.29782">
        <ele>817</ele>
        <time>2009-06-01T16:52:32Z</time>
      </trkpt>
      <trkpt lat="41.77173" lon="9.29766">
        <ele>821</ele>
        <time>2009-06-01T16:53:32Z</time>
      </trkpt>
      <trkpt lat="41.77177" lon="9.29734">
        <ele>828</ele>
        <time>2009-06-01T16:54:32Z</time>
      </trkpt>
      <trkpt lat="41.77184" lon="9.29702">
        <ele>836</ele>
        <time>2009-06-01T16:55:32Z</time>
      </trkpt>
      <trkpt lat="41.7722" lon="9.29673">
        <ele>844</ele>
        <time>2009-06-01T16:56:32Z</time>
      </trkpt>
      <trkpt lat="41.77222" lon="9.29633">
        <ele>851</ele>
        <time>2009-06-01T16:57:32Z</time>
      </trkpt>
      <trkpt lat="41.77229" lon="9.29592">
        <ele>859</ele>
        <time>2009-06-01T16:58:32Z</time>
      </trkpt>
      <trkpt lat="41.77242" lon="9.29569">
        <ele>867</ele>
        <time>2009-06-01T16:59:32Z</time>
      </trkpt>
      <trkpt lat="41.77255" lon="9.29537">
        <ele>877</ele>
        <time>2009-06-01T17:00:32Z</time>
      </trkpt>
      <trkpt lat="41.77256" lon="9.29504">
        <ele>886</ele>
        <time>2009-06-01T17:01:32Z</time>
      </trkpt>
      <trkpt lat="41.7725" lon="9.2947">
        <ele>895</ele>
        <time>2009-06-01T17:02:32Z</time>
      </trkpt>
      <trkpt lat="41.77247" lon="9.29438">
        <ele>905</ele>
        <time>2009-06-01T17:03:32Z</time>
      </trkpt>
      <trkpt lat="41.77233" lon="9.29391">
        <ele>914</ele>
        <time>2009-06-01T17:04:32Z</time>
      </trkpt>
      <trkpt lat="41.77246" lon="9.29349">
        <ele>924</ele>
        <time>2009-06-01T17:05:32Z</time>
      </trkpt>
      <trkpt lat="41.77268" lon="9.29303">
        <ele>933</ele>
        <time>2009-06-01T17:06:32Z</time>
      </trkpt>
      <trkpt lat="41.77253" lon="9.29237">
        <ele>944</ele>
        <time>2009-06-01T17:07:32Z</time>
      </trkpt>
      <trkpt lat="41.77232" lon="9.29172">
        <ele>950</ele>
        <time>2009-06-01T17:08:32Z</time>
      </trkpt>
      <trkpt lat="41.77229" lon="9.29093">
        <ele>950</ele>
        <time>2009-06-01T17:09:32Z</time>
      </trkpt>
      <trkpt lat="41.77227" lon="9.29024">
        <ele>950</ele>
        <time>2009-06-01T17:10:32Z</time>
      </trkpt>
      <trkpt lat="41.77236" lon="9.29003">
        <ele>954</ele>
        <time>2009-06-01T17:11:32Z</time>
      </trkpt>
      <trkpt lat="41.77269" lon="9.28969">
        <ele>959</ele>
        <time>2009-06-01T17:12:32Z</time>
      </trkpt>
      <trkpt lat="41.77273" lon="9.28932">
        <ele>960</ele>
        <time>2009-06-01T17:13:32Z</time>
      </trkpt>
      <trkpt lat="41.77307" lon="9.28894">
        <ele>965</ele>
        <time>2009-06-01T17:14:32Z</time>
      </trkpt>
      <trkpt lat="41.77354" lon="9.28882">
        <ele>973</ele>
        <time>2009-06-01T17:15:32Z</time>
      </trkpt>
      <trkpt lat="41.77382" lon="9.28851">
        <ele>981</ele>
        <time>2009-06-01T17:16:32Z</time>
      </trkpt>
      <trkpt lat="41.7739" lon="9.2881">
        <ele>990</ele>
        <time>2009-06-01T17:17:32Z</time>
      </trkpt>
      <trkpt lat="41.77429" lon="9.28774">
        <ele>998</ele>
        <time>2009-06-01T17:18:32Z</time>
      </trkpt>
      <trkpt lat="41.77458" lon="9.2875">
        <ele>1009</ele>
        <time>2009-06-01T17:19:32Z</time>
      </trkpt>
      <trkpt lat="41.77484" lon="9.28689">
        <ele>1016</ele>
        <time>2009-06-01T17:20:32Z</time>
      </trkpt>
      <trkpt lat="41.775" lon="9.28611">
        <ele>1021</ele>
        <time>2009-06-01T17:21:32Z</time>
      </trkpt>
      <trkpt lat="41.77569" lon="9.28547">
        <ele>1024</ele>
        <time>2009-06-01T17:22:32Z</time>
      </trkpt>
      <trkpt lat="41.7761" lon="9.28494">
        <ele>1028</ele>
        <time>2009-06-01T17:23:32Z</time>
      </trkpt>
      <trkpt lat="41.7766" lon="9.28454">
        <ele>1028</ele>
        <time>2009-06-01T17:24:32Z</time>
      </trkpt>
      <trkpt lat="41.77726" lon="9.28415">
        <ele>1026</ele>
        <time>2009-06-01T17:25:32Z</time>
      </trkpt>
      <trkpt lat="41.77785" lon="9.28408">
        <ele>1025</ele>
        <time>2009-06-01T17:26:32Z</time>
      </trkpt>
      <trkpt lat="41.7785" lon="9.28366">
        <ele>1019</ele>
        <time>2009-06-01T17:27:32Z</time>
      </trkpt>
      <trkpt lat="41.77869" lon="9.28293">
        <ele>1013</ele>
        <time>2009-06-01T17:28:32Z</time>
      </trkpt>
      <trkpt lat="41.77897" lon="9.28274">
        <ele>1011</ele>
        <time>2009-06-01T17:29:32Z</time>
      </trkpt>
      <trkpt lat="41.77935" lon="9.28247">
        <ele>1009</ele>
        <time>2009-06-01T17:30:32Z</time>
      </trkpt>
      <trkpt lat="41.77968" lon="9.28177">
        <ele>1020</ele>
        <time>2009-06-01T17:31:32Z</time>
      </trkpt>
      <trkpt lat="41.77995" lon="9.28128">
        <ele>1030</ele>
        <time>2009-06-01T17:32:32Z</time>
      </trkpt>
      <trkpt lat="41.78009" lon="9.28105">
        <ele>1032</ele>
        <time>2009-06-01T17:33:32Z</time>
      </trkpt>
      <trkpt lat="41.78044" lon="9.28096">
        <ele>1030</ele>
        <time>2009-06-01T17:34:32Z</time>
      </trkpt>
      <trkpt lat="41.78087" lon="9.28132">
        <ele>1030</ele>
        <time>2009-06-01T17:35:32Z</time>
      </trkpt>
      <trkpt lat="41.78126" lon="9.28167">
        <ele>1027</ele>
        <time>2009-06-01T17:36:32Z</time>
      </trkpt>
      <trkpt lat="41.7814" lon="9.28161">
        <ele>1033</ele>
        <time>2009-06-01T17:37:32Z</time>
      </trkpt>
      <trkpt lat="41.78158" lon="9.28155">
        <ele>1023</ele>
        <time>2009-06-01T17:38:32Z</time>
      </trkpt>
      <trkpt lat="41.78165" lon="9.28166">
        <ele>1014</ele>
        <time>2009-06-01T17:39:32Z</time>
      </trkpt>
      <trkpt lat="41.78169" lon="9.28162">
        <ele>1008</ele>
        <time>2009-06-01T17:40:32Z</time>
      </trkpt>
      <trkpt lat="41.78187" lon="9.28164">
        <ele>998</ele>
        <time>2009-06-01T17:41:32Z</time>
      </trkpt>
      <trkpt lat="41.782" lon="9.28163">
        <ele>994</ele>
        <time>2009-06-01T17:42:32Z</time>
      </trkpt>
      <trkpt lat="41.7821" lon="9.28153">
        <ele>987</ele>
        <time>2009-06-01T17:43:32Z</time>
      </trkpt>
      <trkpt lat="41.7824" lon="9.28135">
        <ele>976</ele>
        <time>2009-06-01T17:44:32Z</time>
      </trkpt>
      <trkpt lat="41.78258" lon="9.28132">
        <ele>967</ele>
        <time>2009-06-01T17:45:32Z</time>
      </trkpt>
      <trkpt lat="41.78283" lon="9.28136">
        <ele>958</ele>
        <time>2009-06-01T17:46:32Z</time>
      </trkpt>
      <trkpt lat="41.78314" lon="9.2814">
        <ele>950</ele>
        <time>2009-06-01T17:47:32Z</time>
      </trkpt>
      <trkpt lat="41.7834" lon="9.28132">
        <ele>941</ele>
        <time>2009-06-01T17:48:32Z</time>
      </trkpt>
      <trkpt lat="41.78368" lon="9.2812">
        <ele>930</ele>
        <time>2009-06-01T17:49:32Z</time>
      </trkpt>
      <trkpt lat="41.78376" lon="9.28128">
        <ele>921</ele>
        <time>2009-06-01T17:50:32Z</time>
      </trkpt>
      <trkpt lat="41.78393" lon="9.28138">
        <ele>914</ele>
        <time>2009-06-01T17:51:32Z</time>
      </trkpt>
      <trkpt lat="41.78405" lon="9.28157">
        <ele>909</ele>
        <time>2009-06-01T17:52:32Z</time>
      </trkpt>
      <trkpt lat="41.78429" lon="9.28137">
        <ele>902</ele>
        <time>2009-06-01T17:53:32Z</time>
      </trkpt>
      <trkpt lat="41.78467" lon="9.28155">
        <ele>892</ele>
        <time>2009-06-01T17:54:32Z</time>
      </trkpt>
      <trkpt lat="41.78517" lon="9.2815">
        <ele>883</ele>
        <time>2009-06-01T17:55:32Z</time>
      </trkpt>
      <trkpt lat="41.78562" lon="9.28138">
        <ele>876</ele>
        <time>2009-06-01T17:56:32Z</time>
      </trkpt>
      <trkpt lat="41.78593" lon="9.28134">
        <ele>870</ele>
        <time>2009-06-01T17:57:32Z</time>
      </trkpt>
      <trkpt lat="41.78651" lon="9.28118">
        <ele>870</ele>
        <time>2009-06-01T17:58:32Z</time>
      </trkpt>
      <trkpt lat="41.78702" lon="9.28137">
        <ele>869</ele>
        <time>2009-06-01T17:59:32Z</time>
      </trkpt>
      <trkpt lat="41.7875" lon="9.28151">
        <ele>865</ele>
        <time>2009-06-01T18:00:32Z</time>
      </trkpt>
      <trkpt lat="41.78806" lon="9.28146">
        <ele>865</ele>
        <time>2009-06-01T18:01:32Z</time>
      </trkpt>
      <trkpt lat="41.78853" lon="9.28145">
        <ele>868</ele>
        <time>2009-06-01T18:02:32Z</time>
      </trkpt>
      <trkpt lat="41.78897" lon="9.28144">
        <ele>870</ele>
        <time>2009-06-01T18:03:32Z</time>
      </trkpt>
      <trkpt lat="41.78946" lon="9.28126">
        <ele>877</ele>
        <time>2009-06-01T18:04:32Z</time>
      </trkpt>
      <trkpt lat="41.78989" lon="9.28117">
        <ele>884</ele>
        <time>2009-06-01T18:05:32Z</time>
      </trkpt>
      <trkpt lat="41.79013" lon="9.28096">
        <ele>886</ele>
        <time>2009-06-01T18:06:32Z</time>
      </trkpt>
      <trkpt lat="41.7903" lon="9.28036">
        <ele>893</ele>
        <time>2009-06-01T18:07:32Z</time>
      </trkpt>
      <trkpt lat="41.7905" lon="9.27953">
        <ele>898</ele>
        <time>2009-06-01T18:08:32Z</time>
      </trkpt>
      <trkpt lat="41.79026" lon="9.2787">
        <ele>903</ele>
        <time>2009-06-01T18:09:32Z</time>
      </trkpt>
      <trkpt lat="41.78999" lon="9.27805">
        <ele>907</ele>
        <time>2009-06-01T18:10:32Z</time>
      </trkpt>
      <trkpt lat="41.78954" lon="9.2776">
        <ele>904</ele>
        <time>2009-06-01T18:11:32Z</time>
      </trkpt>
      <trkpt lat="41.78906" lon="9.27735">
        <ele>900</ele>
        <time>2009-06-01T18:12:32Z</time>
      </trkpt>
      <trkpt lat="41.78869" lon="9.27664">
        <ele>898</ele>
        <time>2009-06-01T18:13:32Z</time>
      </trkpt>
      <trkpt lat="41.78869" lon="9.27586">
        <ele>901</ele>
        <time>2009-06-01T18:14:32Z</time>
      </trkpt>
      <trkpt lat="41.78838" lon="9.27544">
        <ele>904</ele>
        <time>2009-06-01T18:15:32Z</time>
      </trkpt>
      <trkpt lat="41.78811" lon="9.2748">
        <ele>908</ele>
        <time>2009-06-01T18:16:32Z</time>
      </trkpt>
      <trkpt lat="41.78762" lon="9.27437">
        <ele>916</ele>
        <time>2009-06-01T18:17:32Z</time>
      </trkpt>
      <trkpt lat="41.78733" lon="9.27392">
        <ele>923</ele>
        <time>2009-06-01T18:18:32Z</time>
      </trkpt>
      <trkpt lat="41.78712" lon="9.27335">
        <ele>932</ele>
        <time>2009-06-01T18:19:32Z</time>
      </trkpt>
      <trkpt lat="41.78714" lon="9.27266">
        <ele>937</ele>
        <time>2009-06-01T18:20:32Z</time>
      </trkpt>
      <trkpt lat="41.7871" lon="9.27213">
        <ele>942</ele>
        <time>2009-06-01T18:21:32Z</time>
      </trkpt>
      <trkpt lat="41.78693" lon="9.2714">
        <ele>950</ele>
        <time>2009-06-01T18:22:32Z</time>
      </trkpt>
      <trkpt lat="41.78675" lon="9.27056">
        <ele>959</ele>
        <time>2009-06-01T18:23:32Z</time>
      </trkpt>
      <trkpt lat="41.78714" lon="9.26983">
        <ele>965</ele>
        <time>2009-06-01T18:24:32Z</time>
      </trkpt>
      <trkpt lat="41.78744" lon="9.26915">
        <ele>970</ele>
        <time>2009-06-01T18:25:32Z</time>
      </trkpt>
      <trkpt lat="41.78724" lon="9.26833">
        <ele>974</ele>
        <time>2009-06-01T18:26:32Z</time>
      </trkpt>
      <trkpt lat="41.78756" lon="9.26762">
        <ele>979</ele>
        <time>2009-06-01T18:27:32Z</time>
      </trkpt>
      <trkpt lat="41.78798" lon="9.26715">
        <ele>981</ele>
        <time>2009-06-01T18:28:32Z</time>
      </trkpt>
      <trkpt lat="41.78807" lon="9.26683">
        <ele>977</ele>
        <time>2009-06-01T18:29:32Z</time>
      </trkpt>
      <trkpt lat="41.78821" lon="9.26659">
        <ele>979</ele>
        <time>2009-06-01T18:30:32Z</time>
      </trkpt>
      <trkpt lat="41.78868" lon="9.26648">
        <ele>985</ele>
        <time>2009-06-01T18:31:32Z</time>
      </trkpt>
      <trkpt lat="41.78862" lon="9.2659">
        <ele>983</ele>
        <time>2009-06-01T18:32:32Z</time>
      </trkpt>
      <trkpt lat="41.78902" lon="9.26526">
        <ele>974</ele>
        <time>2009-06-01T18:33:32Z</time>
      </trkpt>
      <trkpt lat="41.78931" lon="9.26493">
        <ele>967</ele>
        <time>2009-06-01T18:34:32Z</time>
      </trkpt>
      <trkpt lat="41.78949" lon="9.26404">
        <ele>961</ele>
        <time>2009-06-01T18:35:32Z</time>
      </trkpt>
      <trkpt lat="41.78968" lon="9.26323">
        <ele>959</ele>
        <time>2009-06-01T18:36:32Z</time>
      </trkpt>
      <trkpt lat="41.78987" lon="9.26224">
        <ele>959</ele>
        <time>2009-06-01T18:37:32Z</time>
      </trkpt>
      <trkpt lat="41.79039" lon="9.26178">
        <ele>961</ele>
        <time>2009-06-01T18:38:32Z</time>
      </trkpt>
      <trkpt lat="41.79107" lon="9.26165">
        <ele>964</ele>
        <time>2009-06-01T18:39:32Z</time>
      </trkpt>
      <trkpt lat="41.7916" lon="9.26128">
        <ele>966</ele>
        <time>2009-06-01T18:40:32Z</time>
      </trkpt>
      <trkpt lat="41.7919" lon="9.26116">
        <ele>968</ele>
        <time>2009-06-01T18:41:32Z</time>
      </trkpt>
      <trkpt lat="41.79235" lon="9.26073">
        <ele>973</ele>
        <time>2009-06-01T18:42:32Z</time>
      </trkpt>
      <trkpt lat="41.79267" lon="9.26055">
        <ele>985</ele>
        <time>2009-06-01T18:43:32Z</time>
      </trkpt>
      <trkpt lat="41.79298" lon="9.26036">
        <ele>995</ele>
        <time>2009-06-01T18:44:32Z</time>
      </trkpt>
      <trkpt lat="41.79319" lon="9.2602">
        <ele>1005</ele>
        <time>2009-06-01T18:45:32Z</time>
      </trkpt>
      <trkpt lat="41.7935" lon="9.2601">
        <ele>1015</ele>
        <time>2009-06-01T18:46:32Z</time>
      </trkpt>
      <trkpt lat="41.7937" lon="9.26049">
        <ele>1025</ele>
        <time>2009-06-01T18:47:32Z</time>
      </trkpt>
      <trkpt lat="41.79406" lon="9.26022">
        <ele>1035</ele>
        <time>2009-06-01T18:48:32Z</time>
      </trkpt>
      <trkpt lat="41.79411" lon="9.25961">
        <ele>1044</ele>
        <time>2009-06-01T18:49:32Z</time>
      </trkpt>
      <trkpt lat="41.79415" lon="9.25955">
        <ele>1051</ele>
        <time>2009-06-01T18:50:32Z</time>
      </trkpt>
      <trkpt lat="41.79454" lon="9.25952">
        <ele>1056</ele>
        <time>2009-06-01T18:51:32Z</time>
      </trkpt>
      <trkpt lat="41.79455" lon="9.25955">
        <ele>1054</ele>
        <time>2009-06-01T18:52:32Z</time>
      </trkpt>
      <trkpt lat="41.79455" lon="9.25957">
        <ele>1054</ele>
        <time>2009-06-01T18:53:32Z</time>
      </trkpt>
    </trkseg>
  </trk>
</gpx>